createdAt,value
2022-08-18T00:00:46.275Z,22.80
2022-08-18T00:02:02.850Z,23.70
2022-08-18T00:03:19.128Z,19.13
2022-08-18T00:04:43.424Z,18.60
2022-08-18T00:05:51.390Z,28.50
2022-08-18T00:06:53.585Z,20.63
2022-08-18T00:07:55.786Z,19.25
2022-08-18T00:08:59.852Z,18.90
2022-08-18T00:10:02.326Z,28.45
2022-08-18T00:11:05.730Z,21.52
2022-08-18T00:12:13.551Z,20.38
2022-08-18T00:13:15.828Z,17.80
2022-08-18T00:14:22.756Z,25.15
2022-08-18T00:15:25.734Z,22.20
2022-08-18T00:16:28.014Z,20.52
2022-08-18T00:17:31.098Z,17.55
2022-08-18T00:18:33.288Z,15.30
2022-08-18T00:19:46.460Z,21.55
2022-08-18T00:20:50.132Z,18.15
2022-08-18T00:21:52.453Z,29.42
2022-08-18T00:22:56.589Z,20.25
2022-08-18T00:23:58.803Z,20.60
2022-08-18T00:25:01.433Z,14.07
2022-08-18T00:26:04.626Z,15.65
2022-08-18T00:27:06.894Z,23.77
2022-08-18T00:28:09.765Z,19.65
2022-08-18T00:29:11.999Z,18.40
2022-08-18T00:30:19.064Z,22.20
2022-08-18T00:31:21.311Z,19.15
2022-08-18T00:32:29.684Z,16.27
2022-08-18T00:33:32.361Z,15.70
2022-08-18T00:34:34.611Z,19.85
2022-08-18T00:35:38.617Z,20.35
2022-08-18T00:36:41.178Z,22.85
2022-08-18T00:37:43.436Z,22.88
2022-08-18T00:38:45.688Z,15.27
2022-08-18T00:39:51.605Z,22.45
2022-08-18T00:40:55.915Z,18.77
2022-08-18T00:41:58.147Z,23.48
2022-08-18T00:43:04.782Z,21.38
2022-08-18T00:44:07.023Z,23.13
2022-08-18T00:45:14.511Z,24.23
2022-08-18T00:46:24.845Z,21.30
2022-08-18T00:47:41.014Z,17.58
2022-08-18T00:48:48.534Z,19.33
2022-08-18T00:49:54.975Z,19.95
2022-08-18T00:51:00.981Z,25.77
2022-08-18T00:52:05.136Z,19.63
2022-08-18T00:53:15.312Z,21.30
2022-08-18T00:54:30.731Z,19.40
2022-08-18T00:55:34.027Z,18.85
2022-08-18T00:56:46.935Z,24.17
2022-08-18T00:57:55.121Z,22.35
2022-08-18T00:59:22.456Z,16.85
2022-08-18T01:00:24.733Z,20.67
2022-08-18T01:01:30.783Z,24.10
2022-08-18T01:02:37.443Z,18.83
2022-08-18T01:03:43.732Z,18.85
2022-08-18T01:04:56.251Z,21.90
2022-08-18T01:06:11.868Z,22.35
2022-08-18T01:07:21.601Z,18.38
2022-08-18T01:08:28.938Z,22.23
2022-08-18T01:09:31.887Z,17.98
2022-08-18T01:10:35.020Z,19.38
2022-08-18T01:11:39.353Z,15.70
2022-08-18T01:12:46.423Z,24.95
2022-08-18T01:13:49.240Z,19.67
2022-08-18T01:14:51.750Z,20.65
2022-08-18T01:15:54.026Z,15.85
2022-08-18T01:17:16.205Z,18.85
2022-08-18T01:18:37.503Z,20.25
2022-08-18T01:19:58.680Z,19.50
2022-08-18T01:21:54.434Z,18.83
2022-08-18T01:23:00.334Z,25.10
2022-08-18T01:24:05.527Z,23.73
2022-08-18T01:25:27.670Z,24.80
2022-08-18T01:26:31.365Z,20.05
2022-08-18T01:27:34.331Z,19.33
2022-08-18T01:28:42.631Z,21.95
2022-08-18T01:29:49.703Z,21.10
2022-08-18T01:30:58.085Z,21.20
2022-08-18T01:32:00.289Z,20.52
2022-08-18T01:33:02.456Z,22.27
2022-08-18T01:34:09.397Z,17.13
2022-08-18T01:35:15.036Z,18.95
2022-08-18T01:36:20.975Z,17.92
2022-08-18T01:37:24.628Z,22.42
2022-08-18T01:38:27.458Z,19.30
2022-08-18T01:41:06.262Z,18.23
2022-08-18T01:41:27.331Z,19.92
2022-08-18T01:42:17.710Z,24.10
2022-08-18T01:43:20.765Z,24.60
2022-08-18T01:44:22.942Z,22.48
2022-08-18T01:45:25.266Z,17.40
2022-08-18T01:46:29.497Z,16.98
2022-08-18T01:47:47.788Z,19.30
2022-08-18T01:48:52.355Z,23.73
2022-08-18T01:49:54.559Z,25.50
2022-08-18T01:50:56.941Z,18.08
2022-08-18T01:51:59.179Z,26.05
2022-08-18T01:53:05.822Z,21.50
2022-08-18T01:54:11.858Z,14.25
2022-08-18T01:55:14.599Z,25.83
2022-08-18T01:56:17.760Z,21.90
2022-08-18T01:57:21.466Z,19.13
2022-08-18T01:58:31.579Z,22.63
2022-08-18T01:59:35.283Z,24.20
2022-08-18T02:00:38.021Z,25.85
2022-08-18T02:01:50.522Z,22.75
2022-08-18T02:03:02.562Z,22.55
2022-08-18T02:04:31.598Z,26.38
2022-08-18T02:05:36.436Z,26.63
2022-08-18T02:06:40.651Z,27.00
2022-08-18T02:07:48.639Z,19.70
2022-08-18T02:08:56.347Z,22.65
2022-08-18T02:09:59.514Z,20.90
2022-08-18T02:11:03.333Z,21.98
2022-08-18T02:12:07.165Z,22.00
2022-08-18T02:13:09.639Z,21.83
2022-08-18T02:14:11.842Z,22.13
2022-08-18T02:15:14.088Z,20.40
2022-08-18T02:16:16.855Z,18.58
2022-08-18T02:17:19.337Z,26.52
2022-08-18T02:18:46.985Z,19.58
2022-08-18T02:19:47.882Z,23.33
2022-08-18T02:20:50.653Z,20.40
2022-08-18T02:21:52.974Z,22.80
2022-08-18T02:22:55.309Z,38.83
2022-08-18T02:23:57.497Z,22.77
2022-08-18T02:25:00.018Z,21.00
2022-08-18T02:26:11.179Z,27.90
2022-08-18T02:27:15.450Z,23.73
2022-08-18T02:28:17.656Z,23.60
2022-08-18T02:29:19.881Z,20.65
2022-08-18T02:30:22.197Z,22.13
2022-08-18T02:31:25.627Z,24.35
2022-08-18T02:32:29.382Z,22.40
2022-08-18T02:33:31.892Z,19.35
2022-08-18T02:34:34.863Z,22.20
2022-08-18T02:35:38.203Z,21.38
2022-08-18T02:36:40.349Z,22.98
2022-08-18T02:37:47.957Z,23.83
2022-08-18T02:38:59.187Z,22.80
2022-08-18T02:40:02.377Z,18.23
2022-08-18T02:41:08.122Z,17.15
2022-08-18T02:42:10.654Z,26.73
2022-08-18T02:43:12.813Z,26.45
2022-08-18T02:44:15.005Z,17.83
2022-08-18T02:45:17.265Z,20.05
2022-08-18T02:46:19.487Z,27.08
2022-08-18T02:47:21.911Z,19.17
2022-08-18T02:48:31.233Z,17.35
2022-08-18T02:49:33.476Z,27.63
2022-08-18T02:50:44.864Z,19.55
2022-08-18T02:51:47.070Z,23.65
2022-08-18T02:52:49.619Z,23.73
2022-08-18T02:53:51.843Z,29.23
2022-08-18T02:54:56.004Z,23.70
2022-08-18T02:56:40.390Z,26.42
2022-08-18T02:57:45.998Z,23.30
2022-08-18T02:58:49.398Z,24.88
2022-08-18T02:59:51.667Z,27.20
2022-08-18T03:00:54.110Z,26.75
2022-08-18T03:01:56.483Z,32.55
2022-08-18T03:02:58.814Z,25.40
2022-08-18T03:04:01.374Z,30.40
2022-08-18T03:05:03.842Z,45.00
2022-08-18T03:06:06.380Z,27.73
2022-08-18T03:07:09.216Z,29.80
2022-08-18T03:08:11.569Z,26.02
2022-08-18T03:09:16.946Z,31.60
2022-08-18T03:10:33.368Z,29.35
2022-08-18T03:11:37.605Z,23.23
2022-08-18T03:12:42.812Z,30.55
2022-08-18T03:13:45.630Z,34.97
2022-08-18T03:14:47.853Z,32.00
2022-08-18T03:15:54.687Z,24.67
2022-08-18T03:16:59.836Z,30.02
2022-08-18T03:18:02.406Z,25.02
2022-08-18T03:19:04.617Z,32.47
2022-08-18T03:20:07.394Z,28.88
2022-08-18T03:21:21.646Z,26.15
2022-08-18T03:22:28.266Z,26.10
2022-08-18T03:23:31.921Z,23.63
2022-08-18T03:24:36.241Z,19.55
2022-08-18T03:25:49.306Z,32.60
2022-08-18T03:26:53.315Z,17.45
2022-08-18T03:27:55.516Z,24.63
2022-08-18T03:28:59.993Z,26.83
2022-08-18T03:30:04.482Z,33.05
2022-08-18T03:31:14.711Z,26.95
2022-08-18T03:32:17.280Z,29.05
2022-08-18T03:33:20.377Z,25.45
2022-08-18T03:34:22.589Z,25.17
2022-08-18T03:35:25.057Z,25.48
2022-08-18T03:36:31.928Z,24.67
2022-08-18T03:37:34.121Z,27.95
2022-08-18T03:38:36.362Z,28.13
2022-08-18T03:39:38.806Z,24.63
2022-08-18T03:40:43.238Z,27.27
2022-08-18T03:41:58.598Z,28.67
2022-08-18T03:43:50.221Z,34.25
2022-08-18T03:44:32.487Z,24.33
2022-08-18T03:45:35.428Z,24.40
2022-08-18T03:46:37.946Z,30.67
2022-08-18T03:47:40.394Z,28.88
2022-08-18T03:48:43.915Z,34.03
2022-08-18T03:49:46.079Z,29.25
2022-08-18T03:50:48.504Z,31.38
2022-08-18T03:51:51.747Z,24.25
2022-08-18T03:52:54.269Z,28.48
2022-08-18T03:54:00.323Z,27.77
2022-08-18T03:55:02.886Z,26.30
2022-08-18T03:56:16.022Z,32.38
2022-08-18T03:57:20.022Z,33.85
2022-08-18T03:58:22.153Z,31.67
2022-08-18T03:59:27.341Z,23.77
2022-08-18T04:00:31.122Z,26.90
2022-08-18T04:01:39.271Z,30.00
2022-08-18T04:02:41.685Z,28.63
2022-08-18T04:03:45.810Z,31.67
2022-08-18T04:04:48.325Z,25.90
2022-08-18T04:05:53.495Z,29.88
2022-08-18T04:07:00.586Z,32.05
2022-08-18T04:08:04.870Z,32.63
2022-08-18T04:09:10.163Z,32.22
2022-08-18T04:10:19.149Z,22.33
2022-08-18T04:11:22.827Z,24.50
2022-08-18T04:12:25.097Z,32.95
2022-08-18T04:13:27.353Z,26.80
2022-08-18T04:15:42.052Z,26.08
2022-08-18T04:16:45.409Z,22.75
2022-08-18T04:17:56.203Z,26.80
2022-08-18T04:19:09.954Z,26.70
2022-08-18T04:20:13.334Z,32.45
2022-08-18T04:21:15.535Z,24.73
2022-08-18T04:22:18.531Z,33.10
2022-08-18T04:23:21.351Z,38.45
2022-08-18T04:24:24.465Z,28.92
2022-08-18T04:25:32.562Z,34.35
2022-08-18T04:26:37.944Z,28.20
2022-08-18T04:27:42.706Z,28.42
2022-08-18T04:28:44.875Z,25.48
2022-08-18T04:29:48.353Z,36.50
2022-08-18T04:30:50.824Z,34.40
2022-08-18T04:31:53.074Z,28.67
2022-08-18T04:32:55.243Z,26.05
2022-08-18T04:33:58.904Z,28.90
2022-08-18T04:35:02.993Z,28.77
2022-08-18T04:36:11.520Z,31.55
2022-08-18T04:37:15.434Z,30.70
2022-08-18T04:38:17.739Z,26.77
2022-08-18T04:39:21.228Z,27.48
2022-08-18T04:40:25.350Z,29.25
2022-08-18T04:41:29.405Z,27.98
2022-08-18T04:42:31.621Z,34.88
2022-08-18T04:43:34.078Z,29.25
2022-08-18T04:44:37.944Z,22.63
2022-08-18T04:45:40.144Z,33.40
2022-08-18T04:46:48.260Z,31.25
2022-08-18T04:47:51.279Z,29.70
2022-08-18T04:48:59.104Z,27.77
2022-08-18T04:50:02.058Z,25.05
2022-08-18T04:51:07.867Z,25.50
2022-08-18T04:52:40.737Z,24.40
2022-08-18T04:53:45.121Z,27.08
2022-08-18T04:54:47.300Z,23.67
2022-08-18T04:55:54.318Z,23.15
2022-08-18T04:56:56.582Z,26.27
2022-08-18T04:57:59.511Z,23.00
2022-08-18T04:59:13.349Z,30.85
2022-08-18T05:00:15.740Z,29.85
2022-08-18T05:01:21.864Z,22.75
2022-08-18T05:02:24.269Z,26.05
2022-08-18T05:03:27.135Z,25.58
2022-08-18T05:04:30.291Z,27.55
2022-08-18T05:05:32.537Z,25.90
2022-08-18T05:06:35.393Z,26.27
2022-08-18T05:07:44.866Z,25.50
2022-08-18T05:08:48.425Z,25.88
2022-08-18T05:09:54.073Z,32.53
2022-08-18T05:11:03.154Z,28.52
2022-08-18T05:12:07.094Z,27.17
2022-08-18T05:13:09.796Z,24.20
2022-08-18T05:14:12.136Z,31.38
2022-08-18T05:15:14.363Z,31.95
2022-08-18T05:16:27.708Z,32.22
2022-08-18T05:17:31.068Z,33.67
2022-08-18T05:18:39.216Z,27.15
2022-08-18T05:19:48.487Z,33.22
2022-08-18T05:20:53.261Z,30.35
2022-08-18T05:22:00.040Z,38.60
2022-08-18T05:23:03.097Z,31.75
2022-08-18T05:24:05.752Z,26.52
2022-08-18T05:25:10.680Z,36.78
2022-08-18T05:26:14.587Z,29.63
2022-08-18T05:27:16.838Z,24.25
2022-08-18T05:28:19.377Z,28.83
2022-08-18T05:29:22.867Z,26.92
2022-08-18T05:30:26.294Z,29.23
2022-08-18T05:31:29.457Z,25.98
2022-08-18T05:32:49.006Z,25.55
2022-08-18T05:33:53.057Z,25.80
2022-08-18T05:34:56.175Z,29.73
2022-08-18T05:36:04.118Z,27.83
2022-08-18T05:37:26.434Z,29.25
2022-08-18T05:38:39.662Z,33.55
2022-08-18T05:39:59.076Z,25.88
2022-08-18T05:41:19.514Z,27.70
2022-08-18T05:42:26.884Z,31.02
2022-08-18T05:43:29.565Z,24.77
2022-08-18T05:44:40.494Z,23.95
2022-08-18T05:45:44.131Z,24.55
2022-08-18T05:46:52.455Z,32.45
2022-08-18T05:48:00.092Z,29.10
2022-08-18T05:49:02.497Z,37.47
2022-08-18T05:50:09.189Z,31.80
2022-08-18T05:51:22.360Z,37.65
2022-08-18T05:52:27.477Z,35.63
2022-08-18T05:53:48.724Z,38.10
2022-08-18T05:55:15.524Z,35.67
2022-08-18T05:56:46.096Z,35.50
2022-08-18T05:57:54.550Z,35.50
2022-08-18T05:58:59.596Z,37.65
2022-08-18T06:00:04.775Z,39.20
2022-08-18T06:01:23.173Z,38.63
2022-08-18T06:02:55.137Z,40.28
2022-08-18T06:04:22.375Z,36.38
2022-08-18T06:05:34.922Z,35.75
2022-08-18T06:06:37.607Z,37.30
2022-08-18T06:07:49.179Z,32.83
2022-08-18T06:09:12.872Z,33.15
2022-08-18T06:10:15.776Z,32.90
2022-08-18T06:11:22.324Z,34.42
2022-08-18T06:12:37.289Z,37.60
2022-08-18T06:13:43.129Z,28.33
2022-08-18T06:14:45.465Z,36.42
2022-08-18T06:16:18.973Z,33.53
2022-08-18T06:17:39.704Z,33.45
2022-08-18T06:19:02.855Z,34.45
2022-08-18T06:20:28.716Z,29.05
2022-08-18T06:21:36.908Z,32.22
2022-08-18T06:23:02.119Z,33.03
2022-08-18T06:24:22.820Z,30.40
2022-08-18T06:25:34.824Z,28.88
2022-08-18T06:26:49.305Z,27.17
2022-08-18T06:28:08.447Z,32.03
2022-08-18T06:29:25.442Z,27.00
2022-08-18T06:30:42.930Z,27.48
2022-08-18T06:31:47.900Z,27.83
2022-08-18T06:33:16.432Z,27.02
2022-08-18T06:34:33.578Z,28.23
2022-08-18T06:35:50.256Z,31.80
2022-08-18T06:37:25.550Z,28.48
2022-08-18T06:38:46.168Z,31.98
2022-08-18T06:39:51.329Z,27.27
2022-08-18T06:41:40.517Z,29.92
2022-08-18T06:42:38.700Z,28.80
2022-08-18T06:43:58.973Z,30.05
2022-08-18T06:45:07.112Z,28.13
2022-08-18T06:46:17.634Z,28.13
2022-08-18T06:47:40.912Z,30.92
2022-08-18T06:48:52.139Z,27.25
2022-08-18T06:50:03.076Z,30.77
2022-08-18T06:51:07.920Z,28.25
2022-08-18T06:52:33.586Z,31.95
2022-08-18T06:53:55.291Z,30.73
2022-08-18T06:55:09.785Z,37.28
2022-08-18T06:56:26.891Z,30.80
2022-08-18T06:57:31.112Z,28.63
2022-08-18T06:58:33.285Z,34.85
2022-08-18T06:59:36.642Z,33.05
2022-08-18T07:00:43.676Z,42.80
2022-08-18T07:01:55.810Z,31.98
2022-08-18T07:03:12.987Z,35.10
2022-08-18T07:04:39.857Z,34.38
2022-08-18T07:06:02.391Z,29.80
2022-08-18T07:07:20.500Z,31.30
2022-08-18T07:08:35.659Z,40.40
2022-08-18T07:09:38.059Z,44.25
2022-08-18T07:10:48.032Z,38.90
2022-08-18T07:12:05.454Z,38.42
2022-08-18T07:13:18.083Z,43.20
2022-08-18T07:14:22.826Z,36.08
2022-08-18T07:15:25.142Z,38.03
2022-08-18T07:16:54.603Z,32.60
2022-08-18T07:17:49.976Z,35.60
2022-08-18T07:18:52.586Z,35.70
2022-08-18T07:19:58.151Z,30.50
2022-08-18T07:21:01.485Z,31.98
2022-08-18T07:22:19.088Z,32.83
2022-08-18T07:23:33.810Z,34.28
2022-08-18T07:24:46.717Z,27.33
2022-08-18T07:25:53.030Z,31.55
2022-08-18T07:27:00.975Z,34.65
2022-08-18T07:28:03.423Z,34.05
2022-08-18T07:29:16.046Z,28.35
2022-08-18T07:30:19.525Z,35.03
2022-08-18T07:31:42.797Z,38.67
2022-08-18T07:33:10.595Z,33.22
2022-08-18T07:34:19.123Z,34.05
2022-08-18T07:35:32.354Z,34.35
2022-08-18T07:36:47.477Z,36.40
2022-08-18T07:38:13.804Z,31.42
2022-08-18T07:39:31.889Z,23.30
2022-08-18T07:41:04.075Z,32.30
2022-08-18T07:42:54.023Z,27.15
2022-08-18T07:44:35.886Z,29.90
2022-08-18T07:45:43.007Z,30.45
2022-08-18T07:47:12.156Z,28.80
2022-08-18T07:48:38.032Z,26.10
2022-08-18T07:50:13.457Z,32.00
2022-08-18T07:51:15.232Z,26.55
2022-08-18T07:52:43.783Z,24.23
2022-08-18T07:54:37.673Z,29.23
2022-08-18T07:55:44.587Z,24.77
2022-08-18T07:56:51.489Z,23.85
2022-08-18T07:58:18.138Z,25.13
2022-08-18T07:59:48.984Z,27.48
2022-08-18T08:01:04.721Z,23.77
2022-08-18T08:02:16.017Z,30.77
2022-08-18T08:03:24.099Z,27.17
2022-08-18T08:04:58.622Z,24.17
2022-08-18T08:06:19.991Z,25.30
2022-08-18T08:07:31.897Z,24.58
2022-08-18T08:08:42.327Z,24.67
2022-08-18T08:09:53.901Z,18.92
2022-08-18T08:11:22.960Z,26.10
2022-08-18T08:13:06.099Z,19.75
2022-08-18T08:14:50.346Z,20.95
2022-08-18T08:16:04.171Z,22.15
2022-08-18T08:17:25.259Z,18.20
2022-08-18T08:18:51.445Z,24.60
2022-08-18T08:20:00.906Z,21.13
2022-08-18T08:21:19.975Z,19.58
2022-08-18T08:22:31.465Z,17.52
2022-08-18T08:23:52.475Z,16.90
2022-08-18T08:25:28.304Z,18.85
2022-08-18T08:26:57.449Z,15.60
2022-08-18T08:28:03.145Z,15.48
2022-08-18T08:29:10.965Z,17.88
2022-08-18T08:30:17.884Z,14.30
2022-08-18T08:31:37.847Z,17.23
2022-08-18T08:33:07.128Z,17.02
2022-08-18T08:34:22.277Z,12.30
2022-08-18T08:36:02.996Z,14.32
2022-08-18T08:37:09.329Z,12.80
2022-08-18T08:38:49.519Z,12.32
2022-08-18T08:40:00.890Z,9.40
2022-08-18T08:41:08.379Z,12.80
2022-08-18T08:42:30.263Z,11.20
2022-08-18T08:43:40.408Z,14.30
2022-08-18T08:44:59.131Z,12.68
2022-08-18T08:46:24.712Z,15.38
2022-08-18T08:48:09.276Z,13.88
2022-08-18T08:49:39.697Z,14.60
2022-08-18T08:50:47.143Z,13.68
2022-08-18T08:51:58.020Z,16.38
2022-08-18T08:53:08.573Z,9.35
2022-08-18T08:54:17.777Z,10.98
2022-08-18T08:55:27.160Z,13.80
2022-08-18T08:56:39.314Z,9.63
2022-08-18T08:57:50.375Z,9.98
2022-08-18T08:58:58.807Z,14.73
2022-08-18T09:00:05.133Z,11.40
2022-08-18T09:01:24.366Z,8.20
2022-08-18T09:03:12.623Z,9.23
2022-08-18T09:04:54.741Z,10.63
2022-08-18T09:06:57.307Z,7.93
2022-08-18T09:08:25.711Z,7.07
2022-08-18T09:09:55.705Z,8.52
2022-08-18T09:11:06.772Z,8.00
2022-08-18T09:12:17.320Z,8.80
2022-08-18T09:13:57.203Z,8.02
2022-08-18T09:15:17.310Z,7.55
2022-08-18T09:16:37.310Z,9.45
2022-08-18T09:18:04.065Z,6.53
2022-08-18T09:19:34.230Z,6.30
2022-08-18T09:20:51.495Z,12.18
2022-08-18T09:22:03.530Z,8.70
2022-08-18T09:23:18.242Z,6.97
2022-08-18T09:24:38.944Z,6.53
2022-08-18T09:27:04.253Z,7.47
2022-08-18T09:28:13.606Z,9.77
2022-08-18T09:29:23.603Z,7.30
2022-08-18T09:31:03.909Z,4.88
2022-08-18T09:32:23.919Z,7.93
2022-08-18T09:33:40.436Z,6.97
2022-08-18T09:34:51.636Z,11.32
2022-08-18T09:36:08.904Z,6.78
2022-08-18T09:37:24.509Z,7.90
2022-08-18T09:38:49.807Z,11.00
2022-08-18T09:40:58.993Z,12.57
2022-08-18T09:41:59.701Z,10.32
2022-08-18T09:43:14.151Z,11.15
2022-08-18T09:44:40.977Z,10.77
2022-08-18T09:46:04.349Z,10.82
2022-08-18T09:47:08.448Z,15.63
2022-08-18T09:48:20.705Z,12.98
2022-08-18T09:49:27.820Z,13.52
2022-08-18T09:50:38.548Z,10.35
2022-08-18T09:51:41.174Z,10.25
2022-08-18T09:52:43.459Z,11.88
2022-08-18T09:53:46.696Z,11.35
2022-08-18T09:55:26.877Z,12.85
2022-08-18T09:57:04.203Z,9.32
2022-08-18T09:58:19.152Z,11.45
2022-08-18T09:59:34.221Z,10.63
2022-08-18T10:00:37.674Z,8.60
2022-08-18T10:01:41.961Z,11.95
2022-08-18T10:02:48.830Z,10.10
2022-08-18T10:05:57.330Z,13.60
2022-08-18T10:07:38.886Z,9.93
2022-08-18T10:09:17.620Z,7.68
2022-08-18T10:11:00.652Z,11.75
2022-08-18T10:12:18.157Z,10.93
2022-08-18T10:13:38.735Z,11.13
2022-08-18T10:15:33.081Z,7.80
2022-08-18T10:18:41.251Z,7.38
2022-08-18T10:20:03.812Z,8.20
2022-08-18T10:21:17.953Z,8.52
2022-08-18T10:22:46.216Z,8.10
2022-08-18T10:24:31.640Z,7.10
2022-08-18T10:25:42.154Z,10.40
2022-08-18T10:26:54.651Z,9.18
2022-08-18T10:28:11.839Z,6.90
2022-08-18T10:29:29.666Z,8.52
2022-08-18T10:31:57.679Z,8.38
2022-08-18T10:33:15.152Z,9.57
2022-08-18T10:34:51.689Z,7.57
2022-08-18T10:35:58.999Z,10.18
2022-08-18T10:37:06.357Z,9.05
2022-08-18T10:38:17.919Z,8.77
2022-08-18T10:39:24.426Z,7.65
2022-08-18T10:40:28.082Z,7.05
2022-08-18T10:41:32.007Z,8.90
2022-08-18T10:42:37.445Z,5.68
2022-08-18T10:45:24.900Z,9.43
2022-08-18T10:46:36.975Z,8.43
2022-08-18T10:47:45.147Z,9.27
2022-08-18T10:49:25.242Z,5.82
2022-08-18T10:50:29.861Z,6.05
2022-08-18T10:52:01.415Z,6.93
2022-08-18T10:53:39.541Z,12.05
2022-08-18T10:55:02.406Z,8.10
2022-08-18T10:56:12.358Z,9.60
2022-08-18T10:57:30.059Z,6.35
2022-08-18T10:58:41.045Z,9.80
2022-08-18T10:59:54.296Z,8.20
2022-08-18T11:01:22.028Z,6.32
2022-08-18T11:02:37.131Z,7.25
2022-08-18T11:03:51.391Z,6.93
2022-08-18T11:04:59.916Z,7.93
2022-08-18T11:06:14.668Z,9.25
2022-08-18T11:07:24.974Z,8.32
2022-08-18T11:08:36.939Z,8.35
2022-08-18T11:09:41.914Z,5.85
2022-08-18T11:11:27.477Z,7.28
2022-08-18T11:12:14.464Z,5.25
2022-08-18T11:13:31.425Z,8.48
2022-08-18T11:14:39.414Z,8.73
2022-08-18T11:16:19.482Z,10.68
2022-08-18T11:17:50.210Z,9.65
2022-08-18T11:20:02.495Z,9.00
2022-08-18T11:21:34.370Z,11.35
2022-08-18T11:22:54.290Z,6.93
2022-08-18T11:24:07.357Z,8.70
2022-08-18T11:25:22.353Z,10.93
2022-08-18T11:26:29.529Z,8.57
2022-08-18T11:27:35.827Z,7.97
2022-08-18T11:28:41.178Z,8.98
2022-08-18T11:29:48.685Z,5.38
2022-08-18T11:30:54.855Z,12.18
2022-08-18T11:32:11.838Z,8.88
2022-08-18T11:33:23.217Z,9.30
2022-08-18T11:34:52.866Z,7.35
2022-08-18T11:35:59.211Z,7.57
2022-08-18T11:37:08.980Z,10.57
2022-08-18T11:38:20.936Z,8.68
2022-08-18T11:39:37.657Z,8.10
2022-08-18T11:42:15.953Z,6.32
2022-08-18T11:43:41.539Z,12.02
2022-08-18T11:44:45.782Z,6.63
2022-08-18T11:46:04.406Z,10.45
2022-08-18T11:47:23.617Z,9.18
2022-08-18T11:48:51.600Z,11.15
2022-08-18T11:50:00.159Z,10.80
2022-08-18T11:51:22.735Z,9.35
2022-08-18T11:52:35.175Z,8.93
2022-08-18T11:55:14.391Z,9.95
2022-08-18T11:56:36.019Z,7.28
2022-08-18T11:57:59.106Z,13.63
2022-08-18T11:59:07.284Z,7.63
2022-08-18T12:00:47.105Z,8.70
2022-08-18T12:01:52.041Z,10.43
2022-08-18T12:03:09.671Z,8.48
2022-08-18T12:04:14.583Z,11.30
2022-08-18T12:05:17.988Z,8.65
2022-08-18T12:06:30.595Z,10.05
2022-08-18T12:07:37.273Z,10.55
2022-08-18T12:08:57.233Z,8.30
2022-08-18T12:11:55.821Z,12.48
2022-08-18T12:13:01.492Z,8.68
2022-08-18T12:14:31.409Z,8.63
2022-08-18T12:15:44.472Z,8.48
2022-08-18T12:16:50.803Z,11.57
2022-08-18T12:17:56.275Z,11.88
2022-08-18T12:18:59.068Z,8.27
2022-08-18T12:20:08.700Z,6.68
2022-08-18T12:21:14.467Z,13.80
2022-08-18T12:22:21.067Z,12.20
2022-08-18T12:23:23.390Z,7.28
2022-08-18T12:24:36.687Z,7.95
2022-08-18T12:25:39.207Z,6.13
2022-08-18T12:26:47.199Z,8.18
2022-08-18T12:27:49.945Z,10.65
2022-08-18T12:28:52.154Z,9.93
2022-08-18T12:29:57.498Z,7.22
2022-08-18T12:30:59.880Z,7.75
2022-08-18T12:32:02.088Z,7.85
2022-08-18T12:34:27.349Z,6.35
2022-08-18T12:35:29.592Z,7.30
2022-08-18T12:36:31.963Z,12.35
2022-08-18T12:37:58.424Z,7.25
2022-08-18T12:38:56.699Z,9.73
2022-08-18T12:40:00.819Z,10.27
2022-08-18T12:41:03.535Z,9.48
2022-08-18T12:42:06.006Z,7.47
2022-08-18T12:43:09.535Z,6.80
2022-08-18T12:44:13.552Z,7.22
2022-08-18T12:45:15.965Z,7.70
2022-08-18T12:46:18.314Z,5.53
2022-08-18T12:48:50.245Z,5.85
2022-08-18T12:49:53.180Z,7.57
2022-08-18T12:50:59.876Z,9.23
2022-08-18T12:52:03.676Z,5.45
2022-08-18T12:53:06.427Z,8.23
2022-08-18T12:54:10.543Z,8.27
2022-08-18T12:55:22.228Z,9.50
2022-08-18T12:56:30.840Z,8.63
2022-08-18T12:57:51.753Z,6.32
2022-08-18T12:58:55.854Z,6.78
2022-08-18T12:59:58.108Z,9.30
2022-08-18T13:01:00.391Z,9.30
2022-08-18T13:02:05.992Z,8.93
2022-08-18T13:03:08.762Z,6.60
2022-08-18T13:04:14.014Z,9.00
2022-08-18T13:05:19.545Z,7.78
2022-08-18T13:06:32.923Z,10.50
2022-08-18T13:07:36.325Z,10.90
2022-08-18T13:08:49.993Z,6.82
2022-08-18T13:09:54.147Z,9.45
2022-08-18T13:10:56.531Z,4.65
2022-08-18T13:12:00.585Z,9.18
2022-08-18T13:13:02.760Z,8.55
2022-08-18T13:14:09.017Z,8.65
2022-08-18T13:15:11.627Z,5.95
2022-08-18T13:16:16.302Z,9.07
2022-08-18T13:17:34.333Z,7.18
2022-08-18T13:18:37.718Z,8.57
2022-08-18T13:19:40.015Z,11.20
2022-08-18T13:20:45.207Z,7.68
2022-08-18T13:21:47.723Z,8.25
2022-08-18T13:22:51.838Z,7.28
2022-08-18T13:23:55.637Z,9.55
2022-08-18T13:24:57.807Z,6.80
2022-08-18T13:26:03.322Z,8.18
2022-08-18T13:27:13.581Z,7.57
2022-08-18T13:28:20.688Z,10.82
2022-08-18T13:29:23.810Z,6.00
2022-08-18T13:30:29.705Z,7.85
2022-08-18T13:31:34.064Z,8.68
2022-08-18T13:32:47.114Z,6.43
2022-08-18T13:34:04.077Z,6.32
2022-08-18T13:35:13.150Z,7.55
2022-08-18T13:36:16.776Z,7.07
2022-08-18T13:37:20.577Z,4.35
2022-08-18T13:38:27.842Z,7.43
2022-08-18T13:39:34.225Z,5.35
2022-08-18T13:40:38.388Z,8.55
2022-08-18T13:41:52.662Z,4.82
2022-08-18T13:42:54.966Z,8.65
2022-08-18T13:43:59.349Z,6.95
2022-08-18T13:45:24.543Z,5.22
2022-08-18T13:46:31.076Z,3.28
2022-08-18T13:47:38.129Z,7.10
2022-08-18T13:48:41.696Z,5.40
2022-08-18T13:49:58.036Z,3.78
2022-08-18T13:51:02.088Z,7.93
2022-08-18T13:52:12.232Z,5.32
2022-08-18T13:53:31.568Z,8.43
2022-08-18T13:54:35.458Z,6.78
2022-08-18T13:55:37.823Z,4.28
2022-08-18T13:56:40.135Z,7.45
2022-08-18T13:57:53.581Z,8.68
2022-08-18T13:58:55.955Z,6.45
2022-08-18T13:59:58.536Z,5.32
2022-08-18T14:01:39.473Z,4.97
2022-08-18T14:02:27.527Z,8.52
2022-08-18T14:03:46.701Z,4.65
2022-08-18T14:04:51.787Z,7.72
2022-08-18T14:06:01.510Z,4.95
2022-08-18T14:07:10.012Z,6.43
2022-08-18T14:08:19.114Z,4.95
2022-08-18T14:09:35.609Z,6.05
2022-08-18T14:10:39.659Z,5.00
2022-08-18T14:11:41.925Z,4.35
2022-08-18T14:12:45.700Z,5.72
2022-08-18T14:13:49.228Z,5.88
2022-08-18T14:14:53.463Z,6.15
2022-08-18T14:15:57.775Z,5.70
2022-08-18T14:17:01.015Z,6.97
2022-08-18T14:18:06.030Z,3.90
2022-08-18T14:19:26.635Z,4.97
2022-08-18T14:20:49.492Z,4.18
2022-08-18T14:22:13.331Z,8.60
2022-08-18T14:23:34.963Z,5.75
2022-08-18T14:25:00.596Z,6.03
2022-08-18T14:26:21.357Z,6.18
2022-08-18T14:27:35.856Z,4.78
2022-08-18T14:28:38.346Z,6.32
2022-08-18T14:29:47.297Z,6.47
2022-08-18T14:30:50.637Z,8.30
2022-08-18T14:31:59.990Z,7.70
2022-08-18T14:33:07.687Z,6.18
2022-08-18T14:35:34.027Z,8.95
2022-08-18T14:36:46.118Z,5.25
2022-08-18T14:37:49.693Z,10.77
2022-08-18T14:38:52.114Z,5.90
2022-08-18T14:39:54.685Z,7.47
2022-08-18T14:40:57.495Z,6.15
2022-08-18T14:41:59.731Z,7.50
2022-08-18T14:43:06.527Z,8.20
2022-08-18T14:44:15.379Z,5.82
2022-08-18T14:45:27.822Z,7.45
2022-08-18T14:46:36.367Z,8.20
2022-08-18T14:47:43.226Z,5.30
2022-08-18T14:48:47.719Z,8.38
2022-08-18T14:49:49.984Z,6.72
2022-08-18T14:50:55.439Z,8.35
2022-08-18T14:52:01.813Z,6.30
2022-08-18T14:53:04.958Z,7.88
2022-08-18T14:54:07.109Z,13.65
2022-08-18T14:55:11.656Z,8.63
2022-08-18T14:56:16.354Z,9.38
2022-08-18T14:58:30.661Z,7.22
2022-08-18T14:59:37.610Z,14.15
2022-08-18T15:00:53.395Z,10.43
2022-08-18T15:01:58.017Z,11.70
2022-08-18T15:03:01.179Z,10.15
2022-08-18T15:04:19.379Z,11.00
2022-08-18T15:05:24.740Z,9.40
2022-08-18T15:06:27.464Z,8.85
2022-08-18T15:07:29.706Z,9.65
2022-08-18T15:08:37.308Z,8.43
2022-08-18T15:09:39.739Z,11.25
2022-08-18T15:10:45.758Z,10.82
2022-08-18T15:11:52.337Z,8.20
2022-08-18T15:13:08.046Z,11.82
2022-08-18T15:14:11.835Z,9.38
2022-08-18T15:15:17.799Z,12.23
2022-08-18T15:16:22.953Z,10.20
2022-08-18T15:17:38.245Z,17.45
2022-08-18T15:18:44.859Z,9.40
2022-08-18T15:19:59.994Z,9.05
2022-08-18T15:21:35.773Z,8.00
2022-08-18T15:23:02.658Z,11.07
2022-08-18T15:24:25.987Z,7.82
2022-08-18T15:25:50.972Z,9.32
2022-08-18T15:26:57.718Z,7.20
2022-08-18T15:28:06.157Z,10.90
2022-08-18T15:29:19.272Z,8.98
2022-08-18T15:30:25.058Z,7.70
2022-08-18T15:32:52.235Z,9.32
2022-08-18T15:33:54.934Z,8.63
2022-08-18T15:35:00.900Z,6.85
2022-08-18T15:36:18.098Z,7.57
2022-08-18T15:37:26.790Z,8.93
2022-08-18T15:38:29.219Z,8.95
2022-08-18T15:39:31.407Z,7.00
2022-08-18T15:40:35.911Z,8.20